Time;durP1;ratioP1;P1;durP2;ratioP2;P2;SDS_P1;SDS_P2;PMS_P1;PMS_P2;Temp;Humidity;BMP_temperature;BMP_pressure;BME280_temperature;BME280_humidity;BME280_pressure;Samples;Min_cycle;Max_cycle;Signal;HPM_P1;HPM_P2
2021/01/15 00:00:12;;;;;;;13.17;10.27;;;2.80;99.90;;;;;;5058212;28;20218;-55
2021/01/15 00:02:37;;;;;;;12.10;10.80;;;2.90;99.90;;;;;;5057894;28;20408;-54
2021/01/15 00:05:03;;;;;;;14.23;10.27;;;2.80;99.90;;;;;;5057552;28;20413;-53
2021/01/15 00:07:30;;;;;;;10.80;9.70;;;2.80;99.90;;;;;;5057934;28;20647;-52
2021/01/15 00:09:56;;;;;;;11.73;10.53;;;2.80;99.90;;;;;;5058079;28;20457;-55
2021/01/15 00:12:22;;;;;;;11.80;10.57;;;2.80;99.90;;;;;;5058082;28;20411;-53
2021/01/15 00:14:47;;;;;;;11.30;10.10;;;2.80;99.90;;;;;;5058418;28;20409;-53
2021/01/15 00:17:13;;;;;;;15.40;10.53;;;2.90;99.90;;;;;;5057621;28;20209;-52
2021/01/15 00:19:38;;;;;;;10.47;9.37;;;2.70;99.90;;;;;;5057207;28;20172;-54
2021/01/15 00:22:04;;;;;;;12.47;9.93;;;2.40;99.90;;;;;;5043417;28;20656;-55
2021/01/15 00:24:29;;;;;;;11.70;10.50;;;2.40;99.90;;;;;;5037995;28;20169;-56
2021/01/15 00:26:55;;;;;;;10.70;9.60;;;2.40;99.90;;;;;;5038153;28;20169;-52
2021/01/15 00:29:21;;;;;;;13.00;11.37;;;2.70;99.90;;;;;;5038007;28;20597;-54
2021/01/15 00:31:46;;;;;;;12.70;9.80;;;2.80;99.90;;;;;;5036717;28;20191;-53
2021/01/15 00:34:14;;;;;;;11.80;9.77;;;2.70;99.90;;;;;;5056606;28;20189;-56
2021/01/15 00:36:41;;;;;;;11.83;10.23;;;2.80;99.90;;;;;;5057033;28;20177;-53
2021/01/15 00:39:13;;;;;;;10.60;9.00;;;2.70;99.90;;;;;;5056624;28;20416;-56
2021/01/15 00:41:39;;;;;;;10.80;8.63;;;2.80;99.90;;;;;;5057954;28;20430;-56
2021/01/15 00:44:06;;;;;;;14.87;8.97;;;2.70;99.90;;;;;;5058073;28;20894;-52
2021/01/15 00:46:32;;;;;;;13.50;9.17;;;2.90;99.90;;;;;;5058271;28;20421;-54
2021/01/15 00:49:06;;;;;;;11.90;8.20;;;2.80;99.90;;;;;;5057980;28;20407;-56
2021/01/15 00:51:37;;;;;;;10.40;8.47;;;2.70;99.90;;;;;;5050113;28;20945;-52
2021/01/15 00:54:04;;;;;;;14.33;9.20;;;2.70;99.90;;;;;;5037492;28;20424;-54
2021/01/15 00:56:30;;;;;;;8.80;7.40;;;2.70;99.90;;;;;;5038041;28;20524;-56
2021/01/15 00:58:56;;;;;;;9.00;8.10;;;2.70;99.90;;;;;;5038303;28;20441;-55
2021/01/15 01:01:23;;;;;;;9.97;7.37;;;2.70;99.90;;;;;;5040373;28;20914;-55
2021/01/15 01:03:49;;;;;;;8.70;7.87;;;2.60;99.90;;;;;;5041042;28;20175;-54
2021/01/15 01:06:21;;;;;;;8.60;6.53;;;2.50;99.90;;;;;;5040754;28;20405;-53
2021/01/15 01:08:47;;;;;;;10.50;6.87;;;2.40;99.90;;;;;;5041181;28;20390;-56
2021/01/15 01:11:20;;;;;;;6.77;6.10;;;2.50;99.90;;;;;;5041413;28;20506;-54
2021/01/15 01:13:53;;;;;;;7.27;6.53;;;2.60;99.90;;;;;;5040558;28;20390;-55
2021/01/15 01:16:20;;;;;;;8.10;6.47;;;2.50;99.90;;;;;;5041250;28;20749;-54
2021/01/15 01:18:47;;;;;;;6.40;5.80;;;2.40;99.90;;;;;;5041163;28;20438;-56
2021/01/15 01:21:14;;;;;;;10.60;6.40;;;2.40;99.90;;;;;;5040763;28;20851;-54
2021/01/15 01:23:40;;;;;;;7.23;6.20;;;2.70;99.90;;;;;;5040666;28;20413;-55
2021/01/15 01:26:06;;;;;;;6.57;5.90;;;2.80;99.90;;;;;;5040975;28;20823;-53
2021/01/15 01:28:32;;;;;;;7.17;6.47;;;2.80;99.90;;;;;;5041281;28;20450;-55
2021/01/15 01:30:58;;;;;;;4.97;4.57;;;2.90;99.90;;;;;;5039911;28;20202;-54
2021/01/15 01:33:24;;;;;;;7.77;4.90;;;3.00;99.90;;;;;;5041481;28;20175;-52
2021/01/15 01:35:50;;;;;;;6.60;5.90;;;3.10;99.90;;;;;;5040707;28;20415;-55
2021/01/15 01:38:17;;;;;;;5.43;4.80;;;3.00;99.90;;;;;;5040630;28;20454;-55
2021/01/15 01:40:44;;;;;;;8.20;5.07;;;2.80;99.90;;;;;;5040262;28;20193;-54
2021/01/15 01:43:10;;;;;;;5.73;5.23;;;2.60;99.90;;;;;;5039178;28;20421;-55
2021/01/15 01:45:35;;;;;;;6.47;5.50;;;2.60;99.90;;;;;;5039996;28;20772;-55
2021/01/15 01:48:01;;;;;;;7.27;5.93;;;2.60;99.90;;;;;;5040183;28;20587;-53
2021/01/15 01:50:29;;;;;;;5.90;5.27;;;2.70;99.90;;;;;;5040624;28;20205;-55
2021/01/15 01:52:55;;;;;;;7.13;5.20;;;2.50;99.90;;;;;;5050393;28;20185;-53
2021/01/15 01:55:21;;;;;;;6.30;4.97;;;2.50;99.90;;;;;;5045313;28;20416;-54
2021/01/15 01:57:47;;;;;;;6.27;4.97;;;2.50;99.90;;;;;;5040331;28;20461;-53
2021/01/15 02:00:14;;;;;;;5.20;4.70;;;2.70;99.90;;;;;;5040436;28;20439;-53
2021/01/15 02:02:39;;;;;;;5.93;5.00;;;2.70;99.90;;;;;;5039821;28;20431;-54
2021/01/15 02:05:06;;;;;;;5.87;4.53;;;2.70;99.90;;;;;;5039376;28;20398;-56
2021/01/15 02:07:32;;;;;;;4.70;4.07;;;2.80;99.90;;;;;;5038048;28;20197;-54
2021/01/15 02:10:14;;;;;;;4.37;3.90;;;2.80;99.90;;;;;;5040191;28;20426;-54
2021/01/15 02:13:00;;;;;;;4.53;4.13;;;2.70;99.90;;;;;;5040264;28;20385;-54
2021/01/15 02:15:46;;;;;;;7.43;4.80;;;2.70;99.90;;;;;;5040432;28;20417;-54
2021/01/15 02:18:24;;;;;;;4.83;4.40;;;2.60;99.90;;;;;;5039714;28;20449;-53
2021/01/15 02:21:21;;;;;;;6.30;4.67;;;2.60;99.90;;;;;;5039510;28;20432;-57
2021/01/15 02:23:47;;;;;;;7.33;4.60;;;2.50;99.90;;;;;;5039862;28;20394;-55
2021/01/15 02:26:34;;;;;;;7.97;3.87;;;2.40;99.90;;;;;;5040311;28;20432;-56
2021/01/15 02:29:20;;;;;;;5.80;5.20;;;2.40;99.90;;;;;;5040054;28;20412;-56
2021/01/15 02:31:46;;;;;;;4.17;3.77;;;2.40;99.90;;;;;;5038595;28;20445;-54
2021/01/15 02:34:35;;;;;;;6.23;4.40;;;2.30;99.90;;;;;;5039263;28;20417;-56
2021/01/15 02:37:15;;;;;;;4.83;4.33;;;2.30;99.90;;;;;;5039246;28;20201;-56
2021/01/15 02:39:50;;;;;;;6.97;4.20;;;2.40;99.90;;;;;;5047618;28;20392;-55
2021/01/15 02:42:17;;;;;;;7.63;4.90;;;2.20;99.90;;;;;;5059922;28;20881;-54
2021/01/15 02:44:46;;;;;;;6.77;4.30;;;2.20;99.90;;;;;;5059799;28;20984;-52
2021/01/15 02:47:47;;;;;;;4.97;4.23;;;2.30;99.90;;;;;;5059510;28;20855;-53
2021/01/15 02:50:19;;;;;;;4.70;4.20;;;2.40;99.90;;;;;;5057315;28;20500;-54
2021/01/15 02:52:46;;;;;;;5.63;4.10;;;2.40;99.90;;;;;;5049218;28;20432;-55
2021/01/15 02:55:12;;;;;;;6.77;4.00;;;2.40;99.90;;;;;;5038649;28;20420;-53
2021/01/15 02:57:39;;;;;;;3.77;3.47;;;2.50;99.90;;;;;;5055192;28;20486;-52
2021/01/15 03:00:14;;;;;;;9.67;5.40;;;2.50;99.90;;;;;;5059241;28;20428;-53
2021/01/15 03:02:49;;;;;;;5.17;4.07;;;2.50;99.90;;;;;;5059503;28;20511;-56
2021/01/15 03:05:20;;;;;;;4.90;4.43;;;2.50;99.90;;;;;;5058896;28;20400;-54
2021/01/15 03:07:49;;;;;;;4.20;3.80;;;2.40;99.90;;;;;;5059143;28;20401;-52
2021/01/15 03:10:16;;;;;;;6.27;4.40;;;2.50;99.90;;;;;;5037829;28;20514;-53
2021/01/15 03:12:43;;;;;;;4.43;4.00;;;2.50;99.90;;;;;;5053768;28;20832;-54
2021/01/15 03:15:10;;;;;;;6.00;4.20;;;2.50;99.90;;;;;;5038704;28;20924;-53
2021/01/15 03:17:44;;;;;;;7.80;5.50;;;2.50;99.90;;;;;;5038280;28;20853;-55
2021/01/15 03:20:11;;;;;;;6.37;4.30;;;2.50;99.90;;;;;;5038723;28;20466;-53
2021/01/15 03:22:39;;;;;;;7.93;4.27;;;2.40;99.90;;;;;;5038562;28;20410;-58
2021/01/15 03:25:05;;;;;;;5.37;4.37;;;2.40;99.90;;;;;;5037624;28;20440;-55
2021/01/15 03:27:54;;;;;;;7.17;4.60;;;2.30;99.90;;;;;;5038666;28;20428;-54
2021/01/15 03:30:22;;;;;;;6.73;4.33;;;2.20;99.90;;;;;;5038928;28;20473;-53
2021/01/15 03:32:50;;;;;;;7.33;4.97;;;2.20;99.90;;;;;;5039121;28;20415;-53
2021/01/15 03:35:25;;;;;;;6.53;4.40;;;2.20;99.90;;;;;;5038131;28;20428;-55
2021/01/15 03:37:57;;;;;;;5.60;4.50;;;2.20;99.90;;;;;;5038843;28;20958;-54
2021/01/15 03:40:31;;;;;;;4.07;3.77;;;2.10;99.90;;;;;;5039099;28;20776;-54
2021/01/15 03:42:57;;;;;;;4.80;4.33;;;2.10;99.90;;;;;;5039315;28;20398;-56
2021/01/15 03:45:24;;;;;;;4.63;4.20;;;2.20;99.90;;;;;;5037681;28;20425;-56
2021/01/15 03:47:49;;;;;;;4.47;4.07;;;2.20;99.90;;;;;;5038137;28;20418;-55
2021/01/15 03:50:15;;;;;;;7.17;4.80;;;2.10;99.90;;;;;;5037104;28;20433;-55
2021/01/15 03:52:41;;;;;;;4.60;4.20;;;2.10;99.90;;;;;;5038377;28;20224;-55
2021/01/15 03:55:08;;;;;;;6.37;5.20;;;2.10;99.90;;;;;;5038126;28;20817;-52
2021/01/15 03:57:34;;;;;;;5.13;4.00;;;2.10;99.90;;;;;;5038747;28;20460;-53
2021/01/15 04:00:01;;;;;;;5.40;4.27;;;2.00;99.90;;;;;;5038081;28;20428;-52
2021/01/15 04:02:27;;;;;;;4.83;4.33;;;2.00;99.90;;;;;;5038260;28;20530;-52
2021/01/15 04:04:53;;;;;;;4.77;4.13;;;2.00;99.90;;;;;;5038681;28;20424;-53
2021/01/15 04:07:19;;;;;;;4.63;4.03;;;2.00;99.90;;;;;;5039108;28;20528;-54
2021/01/15 04:09:44;;;;;;;5.60;5.00;;;2.00;99.90;;;;;;5038100;28;20183;-53
2021/01/15 04:12:11;;;;;;;6.73;5.17;;;2.00;99.90;;;;;;5038697;28;20416;-55
2021/01/15 04:14:41;;;;;;;5.30;4.80;;;2.00;99.90;;;;;;5038118;28;20918;-52
2021/01/15 04:17:07;;;;;;;5.17;4.77;;;2.00;99.90;;;;;;5038151;28;20415;-54
2021/01/15 04:19:32;;;;;;;7.00;4.47;;;2.00;99.90;;;;;;5037763;28;20459;-53
2021/01/15 04:21:58;;;;;;;5.37;4.63;;;1.90;99.90;;;;;;5038000;28;20389;-55
2021/01/15 04:24:24;;;;;;;5.07;4.63;;;1.90;99.90;;;;;;5037872;28;20635;-52
2021/01/15 04:26:57;;;;;;;5.00;4.60;;;1.90;99.90;;;;;;5038646;28;20243;-52
2021/01/15 04:29:26;;;;;;;6.53;4.13;;;1.80;99.90;;;;;;5037430;28;20415;-51
2021/01/15 04:31:52;;;;;;;4.80;4.03;;;1.80;99.90;;;;;;5037732;28;20432;-53
2021/01/15 04:34:17;;;;;;;4.73;3.90;;;1.70;99.90;;;;;;5038858;28;20814;-53
2021/01/15 04:36:43;;;;;;;6.43;4.47;;;1.60;99.90;;;;;;5041848;28;20195;-52
2021/01/15 04:39:09;;;;;;;7.50;4.20;;;1.50;99.90;;;;;;5041599;28;20196;-55
2021/01/15 04:41:35;;;;;;;6.13;4.70;;;1.60;99.90;;;;;;5042188;28;20190;-55
2021/01/15 04:44:03;;;;;;;4.93;4.40;;;1.60;99.90;;;;;;5041793;28;20416;-53
2021/01/15 04:46:28;;;;;;;7.63;5.17;;;1.50;99.90;;;;;;5060193;28;20422;-52
2021/01/15 04:48:56;;;;;;;5.63;4.20;;;1.40;99.90;;;;;;5070123;28;20400;-56
2021/01/15 04:51:25;;;;;;;6.57;4.90;;;1.40;99.90;;;;;;5082281;28;20196;-54
2021/01/15 04:54:11;;;;;;;5.53;4.87;;;1.30;99.90;;;;;;5078384;28;20409;-55
2021/01/15 04:56:50;;;;;;;5.30;4.80;;;1.30;99.90;;;;;;5042111;28;20434;-52
2021/01/15 04:59:16;;;;;;;6.03;5.43;;;1.30;99.90;;;;;;5041545;28;20883;-53
2021/01/15 05:01:47;;;;;;;5.93;4.83;;;1.30;99.90;;;;;;5041989;28;20428;-53
2021/01/15 05:04:16;;;;;;;4.33;4.03;;;1.30;99.90;;;;;;5042475;28;20480;-52
2021/01/15 05:06:51;;;;;;;6.27;4.10;;;1.30;99.90;;;;;;5042099;28;20406;-54
2021/01/15 05:09:22;;;;;;;5.83;4.80;;;1.20;99.90;;;;;;5041911;28;20417;-53
2021/01/15 05:11:49;;;;;;;5.00;4.50;;;1.10;99.90;;;;;;5042210;28;20514;-55
2021/01/15 05:14:16;;;;;;;5.30;4.10;;;1.20;99.90;;;;;;5041385;28;20803;-55
2021/01/15 05:16:44;;;;;;;6.60;4.90;;;1.20;99.90;;;;;;5041603;28;20404;-55
2021/01/15 05:19:12;;;;;;;7.60;5.50;;;1.10;99.90;;;;;;5042079;28;20542;-52
2021/01/15 05:21:39;;;;;;;6.70;4.60;;;1.20;99.90;;;;;;5041860;28;20514;-53
2021/01/15 05:24:06;;;;;;;7.73;6.00;;;1.20;99.90;;;;;;5039431;28;20457;-53
2021/01/15 05:26:36;;;;;;;6.13;5.40;;;1.20;99.90;;;;;;5041848;28;20416;-52
2021/01/15 05:29:04;;;;;;;6.17;5.57;;;1.20;99.90;;;;;;5042468;28;20506;-52
2021/01/15 05:31:51;;;;;;;5.80;5.33;;;1.20;99.90;;;;;;5041939;28;20427;-53
2021/01/15 05:34:18;;;;;;;6.30;5.70;;;1.20;99.90;;;;;;5041593;28;20416;-55
2021/01/15 05:36:45;;;;;;;5.80;5.30;;;1.20;99.90;;;;;;5042009;28;20409;-53
2021/01/15 05:39:21;;;;;;;8.93;5.30;;;1.20;99.90;;;;;;5042624;28;20471;-55
2021/01/15 05:41:48;;;;;;;7.80;6.27;;;1.00;99.90;;;;;;5043071;28;20430;-56
2021/01/15 05:44:31;;;;;;;8.40;6.23;;;0.80;99.90;;;;;;5055151;28;20433;-55
2021/01/15 05:47:00;;;;;;;6.43;5.83;;;0.80;99.90;;;;;;5045350;28;20454;-53
2021/01/15 05:49:29;;;;;;;9.67;8.37;;;0.80;99.90;;;;;;5048513;28;20412;-55
2021/01/15 05:52:08;;;;;;;5.90;5.00;;;0.90;99.90;;;;;;5061223;28;21010;-52
2021/01/15 05:54:35;;;;;;;6.80;6.10;;;0.80;99.90;;;;;;5042414;28;20482;-57
2021/01/15 05:57:02;;;;;;;6.83;5.97;;;0.80;99.90;;;;;;5040568;28;20443;-54
2021/01/15 05:59:28;;;;;;;7.80;5.80;;;0.80;99.90;;;;;;5040027;28;20447;-53
2021/01/15 06:01:59;;;;;;;7.00;6.40;;;0.70;99.90;;;;;;5051529;28;20466;-57
2021/01/15 06:04:33;;;;;;;7.33;6.23;;;0.80;99.90;;;;;;5061612;28;20433;-54
2021/01/15 06:07:08;;;;;;;7.83;7.00;;;0.80;99.90;;;;;;5060930;28;20402;-56
2021/01/15 06:09:34;;;;;;;7.60;6.47;;;0.80;99.90;;;;;;5061152;28;20410;-53
2021/01/15 06:12:06;;;;;;;8.57;5.83;;;0.80;99.90;;;;;;5061108;28;20406;-55
2021/01/15 06:14:32;;;;;;;7.50;6.80;;;0.70;99.90;;;;;;5060843;28;20403;-55
2021/01/15 06:17:05;;;;;;;7.13;6.03;;;0.70;99.90;;;;;;5060628;28;20790;-54
2021/01/15 06:19:53;;;;;;;8.17;6.30;;;0.80;99.90;;;;;;5060457;28;20755;-55
2021/01/15 06:22:44;;;;;;;8.67;6.77;;;0.70;99.90;;;;;;5060520;28;20492;-53
2021/01/15 06:25:18;;;;;;;5.20;4.70;;;0.70;99.90;;;;;;5060204;28;20390;-56
2021/01/15 06:27:44;;;;;;;7.50;6.70;;;0.70;99.90;;;;;;5057208;28;20905;-55
2021/01/15 06:30:23;;;;;;;7.57;6.80;;;0.60;99.90;;;;;;5039419;28;20423;-53
2021/01/15 06:32:50;;;;;;;8.87;7.97;;;0.70;99.90;;;;;;5040146;28;20968;-57
2021/01/15 06:35:30;;;;;;;7.90;6.77;;;0.60;99.90;;;;;;5039663;28;20420;-56
2021/01/15 06:38:02;;;;;;;7.37;6.37;;;0.60;99.90;;;;;;5047107;28;20444;-53
2021/01/15 06:40:38;;;;;;;8.20;7.40;;;0.50;99.90;;;;;;5058460;28;20496;-55
2021/01/15 06:43:05;;;;;;;10.77;7.17;;;0.60;99.90;;;;;;5058741;28;20460;-56
2021/01/15 06:45:38;;;;;;;11.87;8.30;;;0.60;99.90;;;;;;5060526;28;20898;-54
2021/01/15 06:48:12;;;;;;;9.37;7.80;;;0.60;99.90;;;;;;5060391;28;20773;-57
2021/01/15 06:50:40;;;;;;;7.50;6.80;;;0.60;99.90;;;;;;5059570;28;20456;-54
2021/01/15 06:53:18;;;;;;;7.63;6.83;;;0.50;99.90;;;;;;5060743;28;20421;-54
2021/01/15 06:55:46;;;;;;;7.87;6.97;;;0.50;99.90;;;;;;5048509;28;20426;-56
2021/01/15 06:58:20;;;;;;;8.03;7.23;;;0.50;99.90;;;;;;5039192;28;20561;-56
2021/01/15 07:01:25;;;;;;;8.23;6.53;;;0.50;99.90;;;;;;5039659;28;20528;-54
2021/01/15 07:03:54;;;;;;;8.87;7.97;;;0.40;99.90;;;;;;5038528;28;20494;-54
2021/01/15 07:06:26;;;;;;;8.47;7.50;;;0.40;99.90;;;;;;5039154;28;20402;-53
2021/01/15 07:08:58;;;;;;;8.03;6.83;;;0.40;99.90;;;;;;5039061;28;20466;-56
2021/01/15 07:11:26;;;;;;;9.80;8.30;;;0.30;99.90;;;;;;5040125;28;20426;-54
2021/01/15 07:13:55;;;;;;;12.10;8.47;;;0.20;99.90;;;;;;5039672;28;20422;-56
2021/01/15 07:16:32;;;;;;;9.20;7.47;;;0.20;99.90;;;;;;5039189;28;20774;-55
2021/01/15 07:19:20;;;;;;;10.23;7.30;;;0.20;99.90;;;;;;5039072;28;20561;-55
2021/01/15 07:22:09;;;;;;;8.40;7.10;;;0.20;99.90;;;;;;5039555;28;20504;-55
2021/01/15 07:24:37;;;;;;;7.60;6.90;;;0.10;99.90;;;;;;5038910;28;20424;-56
2021/01/15 07:27:05;;;;;;;8.33;6.77;;;0.20;99.90;;;;;;5039087;28;20748;-55
2021/01/15 07:29:35;;;;;;;9.43;8.13;;;0.20;99.90;;;;;;5038645;28;20418;-55
2021/01/15 07:32:07;;;;;;;8.77;7.80;;;0.30;99.90;;;;;;5038425;28;20417;-54
2021/01/15 07:34:37;;;;;;;7.50;6.80;;;0.30;99.90;;;;;;5038994;28;20410;-54
2021/01/15 07:37:20;;;;;;;7.10;6.33;;;0.30;99.90;;;;;;5039274;28;20433;-56
2021/01/15 07:40:01;;;;;;;7.93;7.13;;;0.30;99.90;;;;;;5038888;28;20851;-55
2021/01/15 07:42:42;;;;;;;7.27;6.57;;;0.20;99.90;;;;;;5039659;28;20417;-55
2021/01/15 07:45:09;;;;;;;8.60;7.80;;;0.30;99.90;;;;;;5037726;28;20919;-55
2021/01/15 07:47:38;;;;;;;7.73;6.80;;;0.50;99.90;;;;;;5038257;28;20443;-55
2021/01/15 07:50:05;;;;;;;8.83;7.40;;;0.50;99.90;;;;;;5038621;28;20452;-52
2021/01/15 07:52:31;;;;;;;7.33;6.63;;;0.50;99.90;;;;;;5039461;28;20442;-55
2021/01/15 07:54:58;;;;;;;11.53;8.47;;;0.50;99.90;;;;;;5038248;28;20893;-55
2021/01/15 07:57:24;;;;;;;9.20;8.20;;;0.50;99.90;;;;;;5038939;28;20463;-55
2021/01/15 07:59:50;;;;;;;10.77;7.87;;;0.60;99.90;;;;;;5038826;28;20410;-54
2021/01/15 08:02:19;;;;;;;10.23;7.10;;;0.60;99.90;;;;;;5038818;28;20492;-54
2021/01/15 08:04:45;;;;;;;10.50;9.07;;;0.70;99.90;;;;;;5036830;28;20400;-56
2021/01/15 08:07:21;;;;;;;9.40;7.60;;;0.70;99.90;;;;;;5038884;28;20438;-54
2021/01/15 08:09:47;;;;;;;9.70;8.53;;;0.70;99.90;;;;;;5038008;28;20401;-55
2021/01/15 08:12:13;;;;;;;12.40;9.67;;;0.80;99.90;;;;;;5039035;28;20473;-55
2021/01/15 08:14:38;;;;;;;9.87;7.63;;;0.90;99.90;;;;;;5037858;28;20179;-56
2021/01/15 08:17:06;;;;;;;12.60;10.60;;;0.90;99.90;;;;;;5038040;28;20192;-57
2021/01/15 08:19:35;;;;;;;9.67;8.27;;;0.80;99.90;;;;;;5038548;28;20257;-57
2021/01/15 08:22:02;;;;;;;12.30;9.37;;;0.90;99.90;;;;;;5038357;28;20819;-56
2021/01/15 08:24:27;;;;;;;11.97;9.40;;;0.90;99.90;;;;;;5037915;28;20423;-56
2021/01/15 08:26:54;;;;;;;11.60;9.60;;;0.90;99.90;;;;;;5038713;28;20411;-53
2021/01/15 08:29:22;;;;;;;11.67;10.53;;;1.00;99.90;;;;;;5037478;28;20176;-53
2021/01/15 08:31:50;;;;;;;12.60;10.50;;;1.10;99.90;;;;;;5038695;28;20425;-53
2021/01/15 08:34:17;;;;;;;14.07;11.77;;;1.10;99.90;;;;;;5038254;28;20479;-54
2021/01/15 08:36:47;;;;;;;11.10;9.33;;;1.20;99.90;;;;;;5047341;28;20446;-55
2021/01/15 08:39:13;;;;;;;14.60;10.80;;;1.40;99.90;;;;;;5055594;28;20455;-56
2021/01/15 08:41:40;;;;;;;13.57;10.17;;;1.40;99.90;;;;;;5058580;28;20485;-53
2021/01/15 08:44:07;;;;;;;11.43;10.17;;;1.40;99.90;;;;;;5058011;28;20489;-55
2021/01/15 08:46:34;;;;;;;12.50;9.67;;;1.50;99.90;;;;;;5057972;28;20416;-53
2021/01/15 08:49:06;;;;;;;13.63;11.57;;;1.50;99.90;;;;;;5068172;28;20397;-54
2021/01/15 08:51:35;;;;;;;13.33;10.23;;;1.50;99.90;;;;;;5076554;28;20526;-56
2021/01/15 08:54:05;;;;;;;10.23;9.13;;;1.40;99.90;;;;;;5068752;28;20432;-53
2021/01/15 08:56:41;;;;;;;11.70;10.30;;;1.50;99.90;;;;;;5037294;28;20534;-53
2021/01/15 08:59:10;;;;;;;14.50;10.50;;;1.60;99.90;;;;;;5037787;28;20502;-55
2021/01/15 09:01:38;;;;;;;12.50;10.27;;;1.50;99.90;;;;;;5034058;28;20424;-54
2021/01/15 09:04:11;;;;;;;14.97;10.63;;;1.50;99.90;;;;;;5038592;28;20423;-57
2021/01/15 09:06:38;;;;;;;12.27;10.40;;;1.60;99.90;;;;;;5039817;28;20400;-53
2021/01/15 09:09:09;;;;;;;13.50;10.90;;;1.30;99.90;;;;;;5038724;28;20419;-55
2021/01/15 09:11:37;;;;;;;15.10;11.30;;;1.30;99.90;;;;;;5039287;28;20436;-53
2021/01/15 09:14:04;;;;;;;12.10;10.13;;;1.20;99.90;;;;;;5039195;28;20859;-56
2021/01/15 09:16:30;;;;;;;13.50;10.60;;;1.00;99.90;;;;;;5039579;28;20411;-54
2021/01/15 09:19:04;;;;;;;14.80;11.60;;;1.20;99.90;;;;;;5037516;28;20863;-53
2021/01/15 09:21:30;;;;;;;13.53;11.17;;;1.40;99.90;;;;;;5040662;28;20439;-58
2021/01/15 09:23:55;;;;;;;11.60;10.00;;;1.40;99.90;;;;;;5041144;28;20415;-56
2021/01/15 09:26:21;;;;;;;12.37;10.90;;;1.40;99.90;;;;;;5042623;28;20649;-56
2021/01/15 09:28:47;;;;;;;14.33;11.00;;;1.30;99.90;;;;;;5042173;28;20330;-56
2021/01/15 09:31:13;;;;;;;13.80;11.93;;;1.40;99.90;;;;;;5051092;28;20290;-55
2021/01/15 09:33:48;;;;;;;13.57;11.43;;;1.60;99.90;;;;;;5062081;28;20177;-53
2021/01/15 09:36:25;;;;;;;12.07;10.70;;;1.60;99.90;;;;;;5062776;28;20397;-54
2021/01/15 09:38:53;;;;;;;15.00;11.87;;;1.70;99.90;;;;;;5062507;28;20522;-57
2021/01/15 09:41:19;;;;;;;18.33;9.67;;;1.60;99.90;;;;;;5062921;28;20749;-57
2021/01/15 09:43:44;;;;;;;14.73;11.63;;;1.40;99.90;;;;;;5062711;28;20487;-57
2021/01/15 09:46:20;;;;;;;14.47;11.67;;;1.40;99.90;;;;;;5062087;28;20168;-54
2021/01/15 09:48:45;;;;;;;13.87;11.03;;;1.40;99.90;;;;;;5068984;28;20184;-55
2021/01/15 09:51:11;;;;;;;13.27;11.17;;;1.50;99.90;;;;;;5060976;28;20431;-57
2021/01/15 09:53:36;;;;;;;14.30;11.90;;;1.50;99.90;;;;;;5060350;28;20190;-58
2021/01/15 09:56:02;;;;;;;13.13;11.30;;;1.60;99.90;;;;;;5059886;28;20673;-56
2021/01/15 09:58:28;;;;;;;15.70;11.50;;;1.60;99.90;;;;;;5060784;28;20190;-54
2021/01/15 10:00:54;;;;;;;17.90;11.90;;;1.40;99.90;;;;;;5061862;28;20243;-57
2021/01/15 10:03:19;;;;;;;12.40;11.10;;;1.50;99.90;;;;;;5061082;28;20595;-54
2021/01/15 10:05:45;;;;;;;14.70;10.87;;;1.30;99.90;;;;;;5062391;28;20446;-54
2021/01/15 10:08:10;;;;;;;18.03;11.70;;;1.30;99.90;;;;;;5058207;28;20212;-55
2021/01/15 10:10:36;;;;;;;13.50;11.90;;;1.50;99.90;;;;;;5041741;28;20193;-55
2021/01/15 10:13:02;;;;;;;13.57;11.07;;;1.70;99.90;;;;;;5042422;28;20203;-57
2021/01/15 10:15:27;;;;;;;21.10;11.80;;;1.50;99.90;;;;;;5042133;28;20226;-55
2021/01/15 10:17:53;;;;;;;11.90;9.67;;;1.50;99.90;;;;;;5041622;28;20665;-54
2021/01/15 10:20:20;;;;;;;15.87;10.23;;;1.50;99.90;;;;;;5041155;28;20600;-54
2021/01/15 10:22:45;;;;;;;15.40;11.00;;;1.80;99.90;;;;;;5042228;28;20170;-55
2021/01/15 10:25:12;;;;;;;15.53;11.07;;;2.00;99.90;;;;;;5041478;28;20773;-57
2021/01/15 10:27:37;;;;;;;13.80;10.60;;;2.10;99.90;;;;;;5041736;28;20311;-53
2021/01/15 10:30:03;;;;;;;14.03;11.70;;;2.10;99.90;;;;;;5041608;28;20956;-55
2021/01/15 10:32:29;;;;;;;15.33;11.27;;;2.40;99.90;;;;;;5060900;28;20204;-56
2021/01/15 10:34:55;;;;;;;12.87;11.03;;;2.40;99.90;;;;;;5060383;28;20451;-54
2021/01/15 10:37:20;;;;;;;14.03;11.20;;;2.40;99.90;;;;;;5061469;28;20518;-58
2021/01/15 10:39:46;;;;;;;14.90;11.40;;;2.30;99.90;;;;;;5044781;28;20315;-56
2021/01/15 10:42:11;;;;;;;18.20;12.17;;;2.00;99.90;;;;;;5040987;28;20174;-56
2021/01/15 10:44:37;;;;;;;15.77;12.10;;;2.00;99.90;;;;;;5040820;28;20171;-59
2021/01/15 10:47:03;;;;;;;21.57;13.03;;;1.90;99.90;;;;;;5034974;28;20168;-58
2021/01/15 10:49:28;;;;;;;17.23;11.63;;;2.00;99.90;;;;;;5034461;28;20165;-59
2021/01/15 10:51:55;;;;;;;20.20;14.73;;;2.20;99.90;;;;;;5034625;28;20433;-59
2021/01/15 10:54:21;;;;;;;15.67;12.20;;;2.40;99.90;;;;;;5045709;28;20170;-57
2021/01/15 10:56:50;;;;;;;14.57;12.37;;;2.40;99.90;;;;;;5034464;28;20429;-60
2021/01/15 10:59:15;;;;;;;16.60;12.97;;;2.40;99.90;;;;;;5034305;28;20954;-59
2021/01/15 11:01:42;;;;;;;14.07;11.70;;;2.50;99.90;;;;;;5034519;28;20433;-58
2021/01/15 11:04:10;;;;;;;14.60;12.87;;;2.40;99.90;;;;;;5034042;28;20167;-59
2021/01/15 11:06:37;;;;;;;21.70;12.60;;;2.50;99.90;;;;;;5034647;28;20406;-57
2021/01/15 11:09:05;;;;;;;17.33;12.47;;;2.70;99.90;;;;;;5034145;28;20421;-57
2021/01/15 11:11:31;;;;;;;14.50;12.57;;;3.40;99.90;;;;;;5034859;28;20930;-61
2021/01/15 11:13:57;;;;;;;14.73;11.60;;;4.80;99.90;;;;;;5033035;28;20949;-58
2021/01/15 11:16:24;;;;;;;11.80;10.60;;;6.60;99.90;;;;;;5034026;28;20444;-59
2021/01/15 11:18:50;;;;;;;14.13;12.63;;;7.40;98.60;;;;;;5034053;28;20993;-58
2021/01/15 11:21:26;;;;;;;12.90;11.43;;;8.60;96.80;;;;;;5038739;28;20436;-54
2021/01/15 11:23:52;;;;;;;15.57;12.53;;;8.70;94.80;;;;;;5040352;28;20167;-55
2021/01/15 11:26:24;;;;;;;13.37;11.30;;;9.90;93.60;;;;;;5040764;28;20409;-58
2021/01/15 11:28:57;;;;;;;14.80;11.60;;;10.00;91.30;;;;;;5044445;28;20415;-54
2021/01/15 11:31:24;;;;;;;17.13;12.23;;;10.90;91.10;;;;;;5061411;28;20468;-54
2021/01/15 11:33:50;;;;;;;13.60;11.37;;;11.00;89.30;;;;;;5061437;28;20414;-57
2021/01/15 11:36:16;;;;;;;11.33;10.10;;;10.80;88.10;;;;;;5060855;28;20439;-54
2021/01/15 11:38:42;;;;;;;10.93;9.63;;;10.10;87.70;;;;;;5060628;28;20985;-54
2021/01/15 11:41:11;;;;;;;15.17;10.43;;;10.80;86.20;;;;;;5061062;28;20434;-53
2021/01/15 11:43:37;;;;;;;14.27;10.53;;;10.50;86.10;;;;;;5049005;28;20410;-54
2021/01/15 11:46:04;;;;;;;13.00;10.90;;;10.20;85.00;;;;;;5040450;28;20413;-58
2021/01/15 11:48:30;;;;;;;13.50;11.90;;;10.70;86.60;;;;;;5059905;28;20408;-54
2021/01/15 11:50:56;;;;;;;15.73;11.20;;;10.30;84.20;;;;;;5060985;28;20503;-54
2021/01/15 11:53:22;;;;;;;12.90;11.03;;;11.50;82.90;;;;;;5061430;28;20451;-54
2021/01/15 11:55:52;;;;;;;13.40;11.50;;;10.90;83.10;;;;;;5060832;28;20416;-56
2021/01/15 11:58:19;;;;;;;12.03;10.87;;;10.50;83.30;;;;;;5060978;28;20457;-54
2021/01/15 12:00:44;;;;;;;12.70;11.40;;;10.80;82.70;;;;;;5061226;28;20454;-56
2021/01/15 12:03:10;;;;;;;13.67;11.60;;;11.30;83.00;;;;;;5056192;28;20931;-56
2021/01/15 12:05:43;;;;;;;13.67;11.53;;;12.70;80.60;;;;;;5042382;28;20196;-56
2021/01/15 12:08:08;;;;;;;12.50;11.20;;;13.10;77.50;;;;;;5040902;28;20778;-53
2021/01/15 12:10:34;;;;;;;15.50;12.30;;;13.50;75.20;;;;;;5040960;28;20422;-54
2021/01/15 12:13:00;;;;;;;15.53;11.10;;;12.10;77.00;;;;;;5041297;28;20410;-55
2021/01/15 12:15:26;;;;;;;11.57;10.30;;;12.90;75.50;;;;;;5042403;28;20719;-56
2021/01/15 12:17:52;;;;;;;11.80;10.37;;;13.60;73.10;;;;;;5041913;28;20225;-54
2021/01/15 12:20:17;;;;;;;11.53;10.43;;;12.40;75.40;;;;;;5042003;28;20692;-56
2021/01/15 12:22:44;;;;;;;11.63;10.37;;;12.00;75.50;;;;;;5042145;28;20175;-56
2021/01/15 12:25:10;;;;;;;15.70;12.07;;;13.30;75.40;;;;;;5061475;28;20190;-56
2021/01/15 12:27:36;;;;;;;12.47;11.17;;;13.60;71.00;;;;;;5057537;28;20430;-56
2021/01/15 12:30:04;;;;;;;12.10;10.80;;;13.40;71.10;;;;;;5059059;28;20429;-55
2021/01/15 12:32:30;;;;;;;13.57;12.07;;;12.20;73.70;;;;;;5061683;28;20423;-55
2021/01/15 12:34:56;;;;;;;11.80;9.80;;;11.70;74.20;;;;;;5061726;28;20488;-55
2021/01/15 12:37:26;;;;;;;10.97;9.90;;;12.30;75.50;;;;;;5060587;28;20516;-55
2021/01/15 12:39:52;;;;;;;13.03;10.70;;;12.20;72.60;;;;;;5060644;28;20167;-56
2021/01/15 12:42:18;;;;;;;11.80;10.20;;;13.70;72.00;;;;;;5056067;28;20401;-53
2021/01/15 12:44:43;;;;;;;10.90;9.80;;;13.10;70.80;;;;;;5055972;28;20413;-55
2021/01/15 12:47:09;;;;;;;11.00;9.80;;;11.90;70.60;;;;;;5056471;28;20171;-56
2021/01/15 12:49:34;;;;;;;11.60;10.00;;;11.70;73.60;;;;;;5035892;28;20204;-54
2021/01/15 12:52:00;;;;;;;13.27;10.67;;;11.00;74.00;;;;;;5036615;28;20203;-54
2021/01/15 12:54:26;;;;;;;11.80;9.57;;;9.20;79.40;;;;;;5035140;28;20172;-56
2021/01/15 12:56:51;;;;;;;11.27;10.17;;;7.20;84.10;;;;;;5037294;28;20428;-57